createdAt,value
2024-02-13T00:01:00.000Z,153.6
2024-02-13T00:02:00.000Z,154.2
2024-02-13T00:03:00.000Z,152.7
2024-02-13T00:04:00.000Z,152.3
2024-02-13T00:05:00.000Z,151.9
2024-02-13T00:06:00.000Z,151.8
2024-02-13T00:07:00.000Z,152.1
2024-02-13T00:08:00.000Z,154.0
2024-02-13T00:09:00.000Z,155.0
2024-02-13T00:10:00.000Z,156.2
2024-02-13T00:11:00.000Z,155.4
2024-02-13T00:12:00.000Z,155.2
2024-02-13T00:13:00.000Z,155.2
2024-02-13T00:14:00.000Z,157.9
2024-02-13T00:15:00.000Z,158.0
2024-02-13T00:16:00.000Z,158.2
2024-02-13T00:17:00.000Z,156.6
2024-02-13T00:18:00.000Z,156.6
2024-02-13T00:19:00.000Z,155.7
2024-02-13T00:20:00.000Z,156.0
2024-02-13T00:21:00.000Z,157.9
2024-02-13T00:22:00.000Z,161.7
2024-02-13T00:23:00.000Z,164.1
2024-02-13T00:24:00.000Z,167.0
2024-02-13T00:25:00.000Z,169.4
2024-02-13T00:26:00.000Z,172.2
2024-02-13T00:27:00.000Z,170.9
2024-02-13T00:28:00.000Z,169.9
2024-02-13T00:29:00.000Z,169.2
2024-02-13T00:30:00.000Z,168.6
2024-02-13T00:31:00.000Z,165.4
2024-02-13T00:32:00.000Z,164.0
2024-02-13T00:33:00.000Z,163.5
2024-02-13T00:34:00.000Z,162.1
2024-02-13T00:35:00.000Z,161.4
2024-02-13T00:36:00.000Z,161.0
2024-02-13T00:37:00.000Z,162.5
2024-02-13T00:38:00.000Z,161.1
2024-02-13T00:39:00.000Z,161.5
2024-02-13T00:40:00.000Z,160.1
2024-02-13T00:41:00.000Z,159.8
2024-02-13T00:42:00.000Z,158.1
2024-02-13T00:43:00.000Z,156.8
2024-02-13T00:44:00.000Z,155.9
2024-02-13T00:45:00.000Z,156.8
2024-02-13T00:46:00.000Z,157.9
2024-02-13T00:47:00.000Z,156.4
2024-02-13T00:48:00.000Z,157.0
2024-02-13T00:49:00.000Z,154.4
2024-02-13T00:50:00.000Z,152.6
2024-02-13T00:51:00.000Z,151.0
2024-02-13T00:52:00.000Z,148.9
2024-02-13T00:53:00.000Z,148.4
2024-02-13T00:54:00.000Z,147.9
2024-02-13T00:55:00.000Z,146.2
2024-02-13T00:56:00.000Z,144.4
2024-02-13T00:57:00.000Z,141.9
2024-02-13T00:58:00.000Z,140.7
2024-02-13T00:59:00.000Z,140.0
2024-02-13T01:01:00.000Z,137.0
2024-02-13T01:02:00.000Z,135.4
2024-02-13T01:03:00.000Z,133.5
2024-02-13T01:04:00.000Z,134.5
2024-02-13T01:05:00.000Z,135.5
2024-02-13T01:06:00.000Z,136.7
2024-02-13T01:07:00.000Z,137.4
2024-02-13T01:08:00.000Z,135.9
2024-02-13T01:09:00.000Z,136.1
2024-02-13T01:10:00.000Z,134.5
2024-02-13T01:11:00.000Z,135.1
2024-02-13T01:12:00.000Z,137.0
2024-02-13T01:13:00.000Z,137.8
2024-02-13T01:14:00.000Z,138.0
2024-02-13T01:15:00.000Z,137.5
2024-02-13T01:16:00.000Z,135.2
2024-02-13T01:17:00.000Z,135.4
2024-02-13T01:18:00.000Z,136.1
2024-02-13T01:19:00.000Z,136.3
2024-02-13T01:20:00.000Z,135.2
2024-02-13T01:21:00.000Z,135.6
2024-02-13T01:22:00.000Z,135.9
2024-02-13T01:23:00.000Z,137.0
2024-02-13T01:24:00.000Z,135.6
2024-02-13T01:25:00.000Z,136.2
2024-02-13T01:26:00.000Z,135.3
2024-02-13T01:27:00.000Z,134.1
2024-02-13T01:28:00.000Z,133.3
2024-02-13T01:29:00.000Z,129.8
2024-02-13T01:30:00.000Z,129.7
2024-02-13T01:31:00.000Z,129.2
2024-02-13T01:32:00.000Z,129.8
2024-02-13T01:33:00.000Z,129.0
2024-02-13T01:34:00.000Z,129.6
2024-02-13T01:35:00.000Z,130.4
2024-02-13T01:36:00.000Z,130.7
2024-02-13T01:37:00.000Z,129.7
2024-02-13T01:38:00.000Z,127.5
2024-02-13T01:39:00.000Z,125.0
2024-02-13T01:40:00.000Z,123.3
2024-02-13T01:41:00.000Z,121.2
2024-02-13T01:42:00.000Z,118.8
2024-02-13T01:43:00.000Z,116.2
2024-02-13T01:44:00.000Z,116.3
2024-02-13T01:45:00.000Z,116.7
2024-02-13T01:46:00.000Z,115.9
2024-02-13T01:47:00.000Z,115.6
2024-02-13T01:48:00.000Z,114.7
2024-02-13T01:49:00.000Z,114.5
2024-02-13T01:50:00.000Z,114.2
2024-02-13T01:51:00.000Z,112.3
2024-02-13T01:52:00.000Z,112.6
2024-02-13T01:53:00.000Z,111.4
2024-02-13T01:54:00.000Z,110.8
2024-02-13T01:55:00.000Z,110.0
2024-02-13T01:56:00.000Z,109.4
2024-02-13T01:57:00.000Z,108.8
2024-02-13T01:58:00.000Z,107.9
2024-02-13T01:59:00.000Z,107.9
2024-02-13T02:01:00.000Z,108.5
2024-02-13T02:02:00.000Z,107.8
2024-02-13T02:03:00.000Z,105.2
2024-02-13T02:04:00.000Z,104.4
2024-02-13T02:05:00.000Z,103.3
2024-02-13T02:06:00.000Z,104.4
2024-02-13T02:07:00.000Z,104.2
2024-02-13T02:08:00.000Z,104.1
2024-02-13T02:09:00.000Z,104.8
2024-02-13T02:10:00.000Z,104.9
2024-02-13T02:11:00.000Z,105.6
2024-02-13T02:12:00.000Z,104.8
2024-02-13T02:13:00.000Z,105.0
2024-02-13T02:14:00.000Z,104.1
2024-02-13T02:15:00.000Z,103.1
2024-02-13T02:16:00.000Z,103.6
2024-02-13T02:17:00.000Z,103.9
2024-02-13T02:18:00.000Z,103.7
2024-02-13T02:19:00.000Z,104.0
2024-02-13T02:20:00.000Z,104.6
2024-02-13T02:21:00.000Z,104.0
2024-02-13T02:22:00.000Z,104.4
2024-02-13T02:23:00.000Z,104.7
2024-02-13T02:24:00.000Z,105.2
2024-02-13T02:25:00.000Z,105.0
2024-02-13T02:26:00.000Z,104.8
2024-02-13T02:27:00.000Z,103.9
2024-02-13T02:28:00.000Z,105.1
2024-02-13T02:29:00.000Z,103.4
2024-02-13T02:30:00.000Z,104.2
2024-02-13T02:31:00.000Z,104.7
2024-02-13T02:32:00.000Z,104.3
2024-02-13T02:33:00.000Z,104.5
2024-02-13T02:34:00.000Z,105.3
2024-02-13T02:35:00.000Z,105.5
2024-02-13T02:36:00.000Z,104.0
2024-02-13T02:37:00.000Z,103.6
2024-02-13T02:38:00.000Z,103.1
2024-02-13T02:39:00.000Z,103.3
2024-02-13T02:40:00.000Z,103.7
2024-02-13T02:41:00.000Z,104.0
2024-02-13T02:42:00.000Z,103.6
2024-02-13T02:43:00.000Z,104.1
2024-02-13T02:44:00.000Z,103.0
2024-02-13T02:45:00.000Z,102.0
2024-02-13T02:46:00.000Z,100.6
2024-02-13T02:47:00.000Z,100.0
2024-02-13T02:48:00.000Z,99.5
2024-02-13T02:49:00.000Z,99.3
2024-02-13T02:50:00.000Z,99.0
2024-02-13T02:51:00.000Z,99.7
2024-02-13T02:52:00.000Z,99.8
2024-02-13T02:53:00.000Z,101.2
2024-02-13T02:54:00.000Z,99.9
2024-02-13T02:55:00.000Z,100.4
2024-02-13T02:56:00.000Z,99.9
2024-02-13T02:57:00.000Z,99.9
2024-02-13T02:58:00.000Z,99.4
2024-02-13T02:59:00.000Z,100.7
2024-02-13T03:01:00.000Z,100.1
2024-02-13T03:02:00.000Z,99.0
2024-02-13T03:03:00.000Z,99.6
2024-02-13T03:04:00.000Z,100.2
2024-02-13T03:05:00.000Z,101.6
2024-02-13T03:06:00.000Z,101.1
2024-02-13T03:07:00.000Z,101.1
2024-02-13T03:08:00.000Z,98.7
2024-02-13T03:09:00.000Z,99.6
2024-02-13T03:10:00.000Z,100.2
2024-02-13T03:11:00.000Z,100.8
2024-02-13T03:12:00.000Z,101.5
2024-02-13T03:13:00.000Z,101.8
2024-02-13T03:14:00.000Z,102.6
2024-02-13T03:15:00.000Z,101.6
2024-02-13T03:16:00.000Z,102.1
2024-02-13T03:17:00.000Z,101.4
2024-02-13T03:18:00.000Z,100.8
2024-02-13T03:19:00.000Z,100.0
2024-02-13T03:20:00.000Z,99.6
2024-02-13T03:21:00.000Z,100.9
2024-02-13T03:22:00.000Z,102.0
2024-02-13T03:23:00.000Z,100.3
2024-02-13T03:24:00.000Z,101.2
2024-02-13T03:25:00.000Z,101.4
2024-02-13T03:26:00.000Z,103.7
2024-02-13T03:27:00.000Z,103.6
2024-02-13T03:28:00.000Z,103.1
2024-02-13T03:29:00.000Z,101.8
2024-02-13T03:30:00.000Z,100.2
2024-02-13T03:31:00.000Z,100.5
2024-02-13T03:32:00.000Z,101.3
2024-02-13T03:33:00.000Z,102.1
2024-02-13T03:34:00.000Z,101.1
2024-02-13T03:35:00.000Z,101.2
2024-02-13T03:36:00.000Z,100.7
2024-02-13T03:37:00.000Z,101.1
2024-02-13T03:38:00.000Z,100.1
2024-02-13T03:39:00.000Z,98.2
2024-02-13T03:40:00.000Z,97.8
2024-02-13T03:41:00.000Z,98.2
2024-02-13T03:42:00.000Z,98.6
2024-02-13T03:43:00.000Z,98.0
2024-02-13T03:44:00.000Z,97.4
2024-02-13T03:45:00.000Z,96.8
2024-02-13T03:46:00.000Z,97.9
2024-02-13T03:47:00.000Z,99.2
2024-02-13T03:48:00.000Z,99.1
2024-02-13T03:49:00.000Z,97.9
2024-02-13T03:50:00.000Z,97.5
2024-02-13T03:51:00.000Z,96.8
2024-02-13T03:52:00.000Z,97.0
2024-02-13T03:53:00.000Z,95.6
2024-02-13T03:54:00.000Z,95.3
2024-02-13T03:55:00.000Z,95.3
2024-02-13T03:56:00.000Z,96.0
2024-02-13T03:57:00.000Z,95.6
2024-02-13T03:58:00.000Z,95.9
2024-02-13T03:59:00.000Z,94.6
2024-02-13T04:01:00.000Z,95.2
2024-02-13T04:02:00.000Z,94.3
2024-02-13T04:03:00.000Z,93.3
2024-02-13T04:04:00.000Z,91.9
2024-02-13T04:05:00.000Z,91.8
2024-02-13T04:06:00.000Z,92.0
2024-02-13T04:07:00.000Z,90.7
2024-02-13T04:08:00.000Z,88.5
2024-02-13T04:09:00.000Z,88.4
2024-02-13T04:10:00.000Z,87.5
2024-02-13T04:11:00.000Z,89.2
2024-02-13T04:12:00.000Z,89.1
2024-02-13T04:13:00.000Z,89.7
2024-02-13T04:14:00.000Z,88.7
2024-02-13T04:15:00.000Z,87.6
2024-02-13T04:16:00.000Z,86.3
2024-02-13T04:17:00.000Z,86.3
2024-02-13T04:18:00.000Z,86.3
2024-02-13T04:19:00.000Z,87.2
2024-02-13T04:20:00.000Z,88.2
2024-02-13T04:21:00.000Z,88.3
2024-02-13T04:22:00.000Z,87.5
2024-02-13T04:23:00.000Z,86.0
2024-02-13T04:24:00.000Z,84.1
2024-02-13T04:25:00.000Z,84.9
2024-02-13T04:26:00.000Z,84.3
2024-02-13T04:27:00.000Z,84.8
2024-02-13T04:28:00.000Z,84.4
2024-02-13T04:29:00.000Z,84.8
2024-02-13T04:30:00.000Z,83.0
2024-02-13T04:31:00.000Z,83.0
2024-02-13T04:32:00.000Z,84.0
2024-02-13T04:33:00.000Z,84.5
2024-02-13T04:34:00.000Z,83.4
2024-02-13T04:35:00.000Z,82.3
2024-02-13T04:36:00.000Z,81.7
2024-02-13T04:37:00.000Z,82.4
2024-02-13T04:38:00.000Z,82.4
2024-02-13T04:39:00.000Z,83.1
2024-02-13T04:40:00.000Z,82.4
2024-02-13T04:41:00.000Z,83.5
2024-02-13T04:42:00.000Z,83.4
2024-02-13T04:43:00.000Z,82.8
2024-02-13T04:44:00.000Z,81.9
2024-02-13T04:45:00.000Z,81.1
2024-02-13T04:46:00.000Z,80.5
2024-02-13T04:47:00.000Z,81.0
2024-02-13T04:48:00.000Z,80.7
2024-02-13T04:49:00.000Z,81.3
2024-02-13T04:50:00.000Z,81.8
2024-02-13T04:51:00.000Z,82.8
2024-02-13T04:52:00.000Z,82.1
2024-02-13T04:53:00.000Z,82.4
2024-02-13T04:54:00.000Z,80.9
2024-02-13T04:55:00.000Z,80.4
2024-02-13T04:56:00.000Z,80.3
2024-02-13T04:57:00.000Z,80.9
2024-02-13T04:58:00.000Z,81.8
2024-02-13T04:59:00.000Z,80.9
2024-02-13T05:01:00.000Z,80.0
2024-02-13T05:02:00.000Z,80.1
2024-02-13T05:03:00.000Z,79.2
2024-02-13T05:04:00.000Z,80.1
2024-02-13T05:05:00.000Z,80.0
2024-02-13T05:06:00.000Z,80.0
2024-02-13T05:07:00.000Z,79.2
2024-02-13T05:08:00.000Z,79.0
2024-02-13T05:09:00.000Z,78.6
2024-02-13T05:10:00.000Z,78.8
2024-02-13T05:11:00.000Z,78.3
2024-02-13T05:12:00.000Z,78.7
2024-02-13T05:13:00.000Z,79.7
2024-02-13T05:14:00.000Z,78.9
2024-02-13T05:15:00.000Z,79.6
2024-02-13T05:16:00.000Z,80.1
2024-02-13T05:17:00.000Z,80.5
2024-02-13T05:18:00.000Z,81.0
2024-02-13T05:19:00.000Z,80.7
2024-02-13T05:20:00.000Z,81.4
2024-02-13T05:21:00.000Z,80.3
2024-02-13T05:22:00.000Z,80.2
2024-02-13T05:23:00.000Z,79.4
2024-02-13T05:24:00.000Z,79.0
2024-02-13T05:25:00.000Z,78.9
2024-02-13T05:26:00.000Z,80.4
2024-02-13T05:27:00.000Z,79.9
2024-02-13T05:28:00.000Z,78.8
2024-02-13T05:29:00.000Z,79.7
2024-02-13T05:30:00.000Z,80.3
2024-02-13T05:31:00.000Z,80.3
2024-02-13T05:32:00.000Z,80.5
2024-02-13T05:33:00.000Z,78.5
2024-02-13T05:34:00.000Z,80.1
2024-02-13T05:35:00.000Z,80.2
2024-02-13T05:36:00.000Z,79.5
2024-02-13T05:37:00.000Z,78.9
2024-02-13T05:38:00.000Z,78.9
2024-02-13T05:39:00.000Z,80.0
2024-02-13T05:40:00.000Z,80.1
2024-02-13T05:41:00.000Z,79.5
2024-02-13T05:42:00.000Z,79.1
2024-02-13T05:43:00.000Z,78.5
2024-02-13T05:44:00.000Z,78.7
2024-02-13T05:45:00.000Z,78.9
2024-02-13T05:46:00.000Z,79.1
2024-02-13T05:47:00.000Z,79.8
2024-02-13T05:48:00.000Z,79.8
2024-02-13T05:49:00.000Z,79.2
2024-02-13T05:50:00.000Z,78.9
2024-02-13T05:51:00.000Z,78.7
2024-02-13T05:52:00.000Z,79.2
2024-02-13T05:53:00.000Z,78.4
2024-02-13T05:54:00.000Z,78.9
2024-02-13T05:55:00.000Z,79.3
2024-02-13T05:56:00.000Z,80.0
2024-02-13T05:57:00.000Z,80.9
2024-02-13T05:58:00.000Z,81.1
2024-02-13T05:59:00.000Z,81.6
2024-02-13T06:01:00.000Z,80.5
2024-02-13T06:02:00.000Z,81.1
2024-02-13T06:03:00.000Z,82.0
2024-02-13T06:04:00.000Z,83.0
2024-02-13T06:05:00.000Z,82.6
2024-02-13T06:06:00.000Z,82.6
2024-02-13T06:07:00.000Z,83.5
2024-02-13T06:08:00.000Z,83.9
2024-02-13T06:09:00.000Z,82.4
2024-02-13T06:10:00.000Z,82.3
2024-02-13T06:11:00.000Z,81.9
2024-02-13T06:12:00.000Z,82.3
2024-02-13T06:13:00.000Z,81.6
2024-02-13T06:14:00.000Z,81.6
2024-02-13T06:15:00.000Z,82.4
2024-02-13T06:16:00.000Z,82.0
2024-02-13T06:17:00.000Z,81.8
2024-02-13T06:18:00.000Z,83.7
2024-02-13T06:19:00.000Z,84.6
2024-02-13T06:20:00.000Z,83.6
2024-02-13T06:21:00.000Z,83.9
2024-02-13T06:22:00.000Z,84.4
2024-02-13T06:23:00.000Z,85.0
2024-02-13T06:24:00.000Z,85.9
2024-02-13T06:25:00.000Z,84.6
2024-02-13T06:26:00.000Z,84.0
2024-02-13T06:27:00.000Z,83.2
2024-02-13T06:28:00.000Z,84.4
2024-02-13T06:29:00.000Z,85.2
2024-02-13T06:30:00.000Z,85.9
2024-02-13T06:31:00.000Z,86.0
2024-02-13T06:32:00.000Z,85.6
2024-02-13T06:33:00.000Z,85.2
2024-02-13T06:34:00.000Z,85.5
2024-02-13T06:35:00.000Z,86.3
2024-02-13T06:36:00.000Z,87.4
2024-02-13T06:37:00.000Z,87.9
2024-02-13T06:38:00.000Z,88.4
2024-02-13T06:39:00.000Z,88.0
2024-02-13T06:40:00.000Z,88.2
2024-02-13T06:41:00.000Z,89.7
2024-02-13T06:42:00.000Z,89.4
2024-02-13T06:43:00.000Z,88.5
2024-02-13T06:44:00.000Z,89.4
2024-02-13T06:45:00.000Z,88.9
2024-02-13T06:46:00.000Z,89.9
2024-02-13T06:47:00.000Z,89.8
2024-02-13T06:48:00.000Z,90.4
2024-02-13T06:49:00.000Z,90.3
2024-02-13T06:50:00.000Z,90.0
2024-02-13T06:51:00.000Z,90.1
2024-02-13T06:52:00.000Z,91.0
2024-02-13T06:53:00.000Z,92.8
2024-02-13T06:54:00.000Z,94.9
2024-02-13T06:55:00.000Z,95.7
2024-02-13T06:56:00.000Z,95.0
2024-02-13T06:57:00.000Z,95.2
2024-02-13T06:58:00.000Z,94.9
2024-02-13T06:59:00.000Z,94.3
2024-02-13T07:01:00.000Z,91.4
2024-02-13T07:02:00.000Z,91.8
2024-02-13T07:03:00.000Z,92.1
2024-02-13T07:04:00.000Z,93.0
2024-02-13T07:05:00.000Z,93.4
2024-02-13T07:06:00.000Z,92.7
2024-02-13T07:08:00.000Z,94.1
2024-02-13T07:09:00.000Z,92.8
2024-02-13T07:10:00.000Z,92.8
2024-02-13T07:11:00.000Z,92.0
2024-02-13T07:12:00.000Z,91.1
2024-02-13T07:13:00.000Z,90.7
2024-02-13T07:14:00.000Z,91.5
2024-02-13T07:15:00.000Z,91.4
2024-02-13T07:16:00.000Z,92.4
2024-02-13T07:17:00.000Z,91.6
2024-02-13T07:18:00.000Z,93.2
2024-02-13T07:19:00.000Z,92.4
2024-02-13T07:20:00.000Z,92.9
2024-02-13T07:21:00.000Z,92.1
2024-02-13T07:22:00.000Z,91.6
2024-02-13T07:23:00.000Z,91.5
2024-02-13T07:24:00.000Z,91.6
2024-02-13T07:25:00.000Z,91.5
2024-02-13T07:26:00.000Z,91.9
2024-02-13T07:27:00.000Z,90.9
2024-02-13T07:28:00.000Z,90.6
2024-02-13T07:29:00.000Z,90.5
2024-02-13T07:30:00.000Z,91.3
2024-02-13T07:31:00.000Z,93.4
2024-02-13T07:32:00.000Z,92.7
2024-02-13T07:33:00.000Z,93.7
2024-02-13T07:34:00.000Z,92.9
2024-02-13T07:35:00.000Z,91.9
2024-02-13T07:36:00.000Z,91.2
2024-02-13T07:37:00.000Z,91.2
2024-02-13T07:38:00.000Z,90.1
2024-02-13T07:39:00.000Z,89.2
2024-02-13T07:40:00.000Z,90.1
2024-02-13T07:41:00.000Z,91.3
2024-02-13T07:42:00.000Z,91.7
2024-02-13T07:43:00.000Z,91.9
2024-02-13T07:44:00.000Z,92.9
2024-02-13T07:45:00.000Z,93.3
2024-02-13T07:46:00.000Z,93.9
2024-02-13T07:47:00.000Z,94.0
2024-02-13T07:48:00.000Z,93.1
2024-02-13T07:49:00.000Z,93.2
2024-02-13T07:50:00.000Z,93.7
2024-02-13T07:51:00.000Z,93.7
2024-02-13T07:52:00.000Z,93.6
2024-02-13T07:53:00.000Z,93.6
2024-02-13T07:54:00.000Z,93.2
2024-02-13T07:55:00.000Z,94.2
2024-02-13T07:56:00.000Z,94.1
2024-02-13T07:57:00.000Z,93.2
2024-02-13T07:58:00.000Z,92.8
2024-02-13T07:59:00.000Z,92.8
2024-02-13T08:01:00.000Z,92.4
2024-02-13T08:02:00.000Z,92.7
2024-02-13T08:03:00.000Z,93.1
2024-02-13T08:04:00.000Z,94.6
2024-02-13T08:05:00.000Z,94.1
2024-02-13T08:06:00.000Z,94.8
2024-02-13T08:07:00.000Z,94.2
2024-02-13T08:08:00.000Z,93.5
2024-02-13T08:09:00.000Z,92.0
2024-02-13T08:10:00.000Z,91.8
2024-02-13T08:11:00.000Z,90.9
2024-02-13T08:12:00.000Z,91.8
2024-02-13T08:13:00.000Z,91.6
2024-02-13T08:14:00.000Z,92.0
2024-02-13T08:15:00.000Z,91.8
2024-02-13T08:16:00.000Z,91.6
2024-02-13T08:17:00.000Z,92.1
2024-02-13T08:18:00.000Z,92.8
2024-02-13T08:19:00.000Z,93.3
2024-02-13T08:20:00.000Z,92.6
2024-02-13T08:21:00.000Z,91.9
2024-02-13T08:22:00.000Z,90.4
2024-02-13T08:23:00.000Z,90.5
2024-02-13T08:24:00.000Z,92.0
2024-02-13T08:25:00.000Z,93.2
2024-02-13T08:26:00.000Z,93.9
2024-02-13T08:27:00.000Z,93.4
2024-02-13T08:28:00.000Z,92.8
2024-02-13T08:29:00.000Z,92.5
2024-02-13T08:30:00.000Z,91.6
2024-02-13T08:31:00.000Z,91.3
2024-02-13T08:32:00.000Z,90.3
2024-02-13T08:33:00.000Z,90.4
2024-02-13T08:34:00.000Z,91.6
2024-02-13T08:35:00.000Z,92.8
2024-02-13T08:36:00.000Z,93.6
2024-02-13T08:37:00.000Z,93.0
2024-02-13T08:38:00.000Z,91.5
2024-02-13T08:39:00.000Z,90.0
2024-02-13T08:40:00.000Z,89.0
2024-02-13T08:41:00.000Z,88.5
2024-02-13T08:42:00.000Z,89.4
2024-02-13T08:43:00.000Z,90.0
2024-02-13T08:44:00.000Z,90.8
2024-02-13T08:45:00.000Z,90.6
2024-02-13T08:46:00.000Z,90.5
2024-02-13T08:47:00.000Z,90.4
2024-02-13T08:48:00.000Z,90.0
2024-02-13T08:49:00.000Z,89.7
2024-02-13T08:50:00.000Z,90.0
2024-02-13T08:51:00.000Z,90.0
2024-02-13T08:52:00.000Z,90.1
2024-02-13T08:53:00.000Z,89.9
2024-02-13T08:54:00.000Z,89.6
2024-02-13T08:55:00.000Z,89.5
2024-02-13T08:56:00.000Z,88.4
2024-02-13T08:57:00.000Z,89.2
2024-02-13T08:58:00.000Z,88.8
2024-02-13T08:59:00.000Z,89.3
2024-02-13T09:01:00.000Z,89.4
2024-02-13T09:02:00.000Z,89.5
2024-02-13T09:03:00.000Z,89.6
2024-02-13T09:04:00.000Z,88.7
2024-02-13T09:05:00.000Z,88.7
2024-02-13T09:06:00.000Z,88.9
2024-02-13T09:07:00.000Z,89.6
2024-02-13T09:08:00.000Z,89.3
2024-02-13T09:09:00.000Z,89.5
2024-02-13T09:10:00.000Z,89.0
2024-02-13T09:11:00.000Z,89.0
2024-02-13T09:12:00.000Z,88.9
2024-02-13T09:13:00.000Z,89.6
2024-02-13T09:14:00.000Z,89.7
2024-02-13T09:15:00.000Z,89.1
2024-02-13T09:16:00.000Z,88.8
2024-02-13T09:17:00.000Z,88.0
2024-02-13T09:18:00.000Z,88.7
2024-02-13T09:19:00.000Z,88.7
2024-02-13T09:20:00.000Z,88.8
2024-02-13T09:21:00.000Z,89.2
2024-02-13T09:22:00.000Z,89.0
2024-02-13T09:23:00.000Z,89.3
2024-02-13T09:24:00.000Z,87.8
2024-02-13T09:25:00.000Z,86.4
2024-02-13T09:26:00.000Z,84.8
2024-02-13T09:27:00.000Z,85.7
2024-02-13T09:28:00.000Z,86.2
2024-02-13T09:29:00.000Z,87.9
2024-02-13T09:30:00.000Z,88.1
2024-02-13T09:31:00.000Z,87.9
2024-02-13T09:32:00.000Z,87.0
2024-02-13T09:33:00.000Z,86.2
2024-02-13T09:34:00.000Z,85.9
2024-02-13T09:35:00.000Z,85.7
2024-02-13T09:36:00.000Z,86.3
2024-02-13T09:37:00.000Z,86.7
2024-02-13T09:38:00.000Z,87.5
2024-02-13T09:39:00.000Z,86.9
2024-02-13T09:40:00.000Z,86.2
2024-02-13T09:41:00.000Z,85.4
2024-02-13T09:42:00.000Z,84.3
2024-02-13T09:43:00.000Z,84.8
2024-02-13T09:44:00.000Z,85.1
2024-02-13T09:45:00.000Z,85.7
2024-02-13T09:46:00.000Z,85.4
2024-02-13T09:47:00.000Z,85.4
2024-02-13T09:48:00.000Z,86.4
2024-02-13T09:49:00.000Z,86.4
2024-02-13T09:50:00.000Z,85.7
2024-02-13T09:51:00.000Z,85.0
2024-02-13T09:52:00.000Z,84.9
2024-02-13T09:53:00.000Z,84.4
2024-02-13T09:54:00.000Z,84.1
2024-02-13T09:55:00.000Z,82.6
2024-02-13T09:56:00.000Z,82.9
2024-02-13T09:57:00.000Z,82.8
2024-02-13T09:58:00.000Z,83.1
2024-02-13T09:59:00.000Z,83.7
2024-02-13T10:01:00.000Z,83.3
2024-02-13T10:02:00.000Z,82.9
2024-02-13T10:03:00.000Z,83.3
2024-02-13T10:04:00.000Z,82.9
2024-02-13T10:05:00.000Z,82.2
2024-02-13T10:06:00.000Z,81.2
2024-02-13T10:07:00.000Z,80.7
2024-02-13T10:08:00.000Z,82.6
2024-02-13T10:09:00.000Z,82.3
2024-02-13T10:10:00.000Z,82.1
2024-02-13T10:11:00.000Z,81.6
2024-02-13T10:12:00.000Z,82.0
2024-02-13T10:13:00.000Z,82.1
2024-02-13T10:14:00.000Z,81.8
2024-02-13T10:15:00.000Z,82.5
2024-02-13T10:16:00.000Z,81.6
2024-02-13T10:17:00.000Z,83.0
2024-02-13T10:18:00.000Z,82.9
2024-02-13T10:19:00.000Z,84.8
2024-02-13T10:20:00.000Z,84.2
2024-02-13T10:21:00.000Z,82.8
2024-02-13T10:22:00.000Z,83.3
2024-02-13T10:23:00.000Z,82.4
2024-02-13T10:24:00.000Z,82.2
2024-02-13T10:25:00.000Z,81.2
2024-02-13T10:26:00.000Z,81.3
2024-02-13T10:27:00.000Z,81.9
2024-02-13T10:28:00.000Z,82.7
2024-02-13T10:29:00.000Z,81.8
2024-02-13T10:30:00.000Z,80.1
2024-02-13T10:31:00.000Z,79.7
2024-02-13T10:32:00.000Z,80.7
2024-02-13T10:33:00.000Z,81.1
2024-02-13T10:34:00.000Z,80.5
2024-02-13T10:35:00.000Z,80.8
2024-02-13T10:36:00.000Z,81.2
2024-02-13T10:37:00.000Z,81.2
2024-02-13T10:38:00.000Z,82.1
2024-02-13T10:39:00.000Z,83.7
2024-02-13T10:40:00.000Z,82.5
2024-02-13T10:41:00.000Z,82.8
2024-02-13T10:42:00.000Z,81.8
2024-02-13T10:43:00.000Z,82.8
2024-02-13T10:44:00.000Z,83.9
2024-02-13T10:45:00.000Z,84.0
2024-02-13T10:46:00.000Z,84.1
2024-02-13T10:47:00.000Z,83.1
2024-02-13T10:48:00.000Z,82.1
2024-02-13T10:49:00.000Z,81.7
2024-02-13T10:50:00.000Z,81.4
2024-02-13T10:51:00.000Z,81.9
2024-02-13T10:52:00.000Z,82.0
2024-02-13T10:53:00.000Z,82.3
2024-02-13T10:54:00.000Z,81.6
2024-02-13T10:55:00.000Z,82.1
2024-02-13T10:56:00.000Z,81.8
2024-02-13T10:57:00.000Z,82.1
2024-02-13T10:58:00.000Z,81.7
2024-02-13T10:59:00.000Z,82.3
2024-02-13T11:01:00.000Z,81.4
2024-02-13T11:02:00.000Z,80.3
2024-02-13T11:03:00.000Z,80.4
2024-02-13T11:04:00.000Z,81.3
2024-02-13T11:05:00.000Z,82.9
2024-02-13T11:06:00.000Z,84.6
2024-02-13T11:07:00.000Z,83.9
2024-02-13T11:08:00.000Z,84.4
2024-02-13T11:09:00.000Z,83.8
2024-02-13T11:10:00.000Z,83.9
2024-02-13T11:11:00.000Z,83.2
2024-02-13T11:12:00.000Z,84.1
2024-02-13T11:13:00.000Z,84.2
2024-02-13T11:14:00.000Z,83.3
2024-02-13T11:15:00.000Z,83.7
2024-02-13T11:16:00.000Z,82.9
2024-02-13T11:17:00.000Z,83.2
2024-02-13T11:18:00.000Z,83.0
2024-02-13T11:19:00.000Z,81.8
2024-02-13T11:20:00.000Z,82.2
2024-02-13T11:21:00.000Z,82.6
2024-02-13T11:22:00.000Z,83.5
2024-02-13T11:23:00.000Z,83.8
2024-02-13T11:24:00.000Z,83.3
2024-02-13T11:25:00.000Z,82.0
2024-02-13T11:26:00.000Z,81.9
2024-02-13T11:27:00.000Z,83.0
2024-02-13T11:28:00.000Z,83.1
2024-02-13T11:29:00.000Z,82.8
2024-02-13T11:30:00.000Z,83.7
2024-02-13T11:31:00.000Z,84.0
2024-02-13T11:32:00.000Z,84.6
2024-02-13T11:33:00.000Z,84.4
2024-02-13T11:34:00.000Z,83.8
2024-02-13T11:35:00.000Z,83.2
2024-02-13T11:36:00.000Z,82.7
2024-02-13T11:37:00.000Z,83.6
2024-02-13T11:38:00.000Z,83.0
2024-02-13T11:39:00.000Z,82.9
2024-02-13T11:40:00.000Z,82.6
2024-02-13T11:41:00.000Z,82.3
2024-02-13T11:42:00.000Z,82.6
2024-02-13T11:43:00.000Z,82.8
2024-02-13T11:44:00.000Z,83.7
2024-02-13T11:45:00.000Z,84.5
2024-02-13T11:46:00.000Z,84.7
2024-02-13T11:47:00.000Z,84.1
2024-02-13T11:48:00.000Z,82.3
2024-02-13T11:49:00.000Z,84.0
2024-02-13T11:50:00.000Z,83.9
2024-02-13T11:51:00.000Z,84.0
2024-02-13T11:52:00.000Z,82.4
2024-02-13T11:53:00.000Z,81.2
2024-02-13T11:54:00.000Z,81.0
2024-02-13T11:55:00.000Z,80.9
2024-02-13T11:56:00.000Z,80.9
2024-02-13T11:57:00.000Z,81.5
2024-02-13T11:58:00.000Z,82.2
2024-02-13T11:59:00.000Z,83.7
2024-02-13T12:01:00.000Z,83.8
